createdAt,value
2018-05-11T00:01:46.151Z,76.49
2018-05-11T00:04:13.702Z,76.21
2018-05-11T00:06:41.194Z,76.36
2018-05-11T00:09:08.656Z,77.13
2018-05-11T00:11:36.182Z,76.21
2018-05-11T00:14:03.719Z,75.83
2018-05-11T00:16:31.199Z,76.85
2018-05-11T00:18:58.658Z,77.04
2018-05-11T00:21:26.140Z,76.56
2018-05-11T00:23:53.598Z,76.20
2018-05-11T00:26:21.086Z,76.03
2018-05-11T00:28:48.558Z,76.34
2018-05-11T00:31:16.054Z,77.11
2018-05-11T00:33:43.519Z,77.57
2018-05-11T00:36:11.073Z,77.22
2018-05-11T00:38:38.626Z,77.70
2018-05-11T00:41:06.098Z,78.04
2018-05-11T00:43:33.583Z,77.95
2018-05-11T00:46:01.051Z,79.03
2018-05-11T00:48:28.541Z,79.28
2018-05-11T00:50:56.126Z,79.70
2018-05-11T00:53:24.638Z,81.14
2018-05-11T00:55:52.102Z,81.27
2018-05-11T00:58:19.662Z,81.36
2018-05-11T01:00:47.182Z,81.42
2018-05-11T01:03:14.669Z,81.46
2018-05-11T01:05:42.134Z,82.14
2018-05-11T01:08:09.663Z,82.47
2018-05-11T01:10:37.207Z,82.22
2018-05-11T01:13:04.766Z,82.74
2018-05-11T01:15:32.223Z,82.82
2018-05-11T01:17:59.713Z,82.39
2018-05-11T01:20:27.243Z,82.77
2018-05-11T01:22:54.799Z,82.89
2018-05-11T01:25:22.258Z,82.48
2018-05-11T01:27:49.751Z,83.08
2018-05-11T01:30:17.217Z,82.71
2018-05-11T01:32:44.711Z,81.70
2018-05-11T01:35:12.166Z,81.70
2018-05-11T01:37:39.751Z,80.88
2018-05-11T01:40:07.239Z,80.54
2018-05-11T01:42:34.720Z,80.56
2018-05-11T01:45:02.191Z,80.82
2018-05-11T01:47:29.650Z,80.72
2018-05-11T01:49:57.162Z,82.14
2018-05-11T01:52:24.747Z,82.50
2018-05-11T01:54:52.256Z,82.27
2018-05-11T01:57:19.788Z,82.07
2018-05-11T01:59:47.268Z,82.78
2018-05-11T02:02:14.762Z,81.77
2018-05-11T02:04:42.262Z,83.29
2018-05-11T02:07:09.799Z,83.68
2018-05-11T02:09:37.334Z,84.89
2018-05-11T02:12:04.817Z,85.35
2018-05-11T02:14:32.318Z,85.93
2018-05-11T02:16:59.782Z,86.47
2018-05-11T02:19:27.268Z,86.83
2018-05-11T02:21:54.735Z,87.17
2018-05-11T02:24:22.288Z,87.23
2018-05-11T02:26:49.849Z,87.32
2018-05-11T02:29:17.418Z,87.47
2018-05-11T02:31:44.895Z,87.74
2018-05-11T02:34:12.403Z,88.01
2018-05-11T02:36:39.884Z,88.09
2018-05-11T02:39:07.369Z,88.18
2018-05-11T02:41:34.825Z,88.21
2018-05-11T02:44:02.362Z,88.27
2018-05-11T02:46:29.820Z,88.30
2018-05-11T02:48:57.357Z,88.28
2018-05-11T02:51:24.862Z,88.33
2018-05-11T02:53:52.411Z,88.32
2018-05-11T02:56:19.902Z,88.34
2018-05-11T02:58:47.405Z,88.43
2018-05-11T03:01:14.968Z,88.56
2018-05-11T03:03:42.631Z,88.67
2018-05-11T03:06:10.334Z,88.72
2018-05-11T03:08:37.848Z,89.01
2018-05-11T03:11:05.342Z,89.06
2018-05-11T03:13:32.817Z,89.08
2018-05-11T03:16:00.312Z,89.05
2018-05-11T03:18:27.829Z,89.09
2018-05-11T03:20:55.278Z,89.38
2018-05-11T03:23:22.742Z,89.58
2018-05-11T03:25:50.226Z,89.64
2018-05-11T03:28:18.122Z,89.69
2018-05-11T03:30:45.635Z,89.63
2018-05-11T03:33:13.144Z,89.59
2018-05-11T03:35:40.631Z,89.77
2018-05-11T03:38:08.090Z,90.11
2018-05-11T03:40:35.614Z,90.35
2018-05-11T03:43:03.075Z,90.59
2018-05-11T03:45:30.566Z,90.78
2018-05-11T03:47:58.027Z,91.02
2018-05-11T03:50:25.518Z,91.15
2018-05-11T03:52:52.990Z,91.11
2018-05-11T03:55:20.489Z,91.11
2018-05-11T03:57:47.955Z,91.14
2018-05-11T04:00:15.462Z,91.37
2018-05-11T04:02:54.899Z,91.53
2018-05-11T04:05:34.265Z,91.71
2018-05-11T04:08:14.555Z,91.83
2018-05-11T04:10:42.079Z,91.87
2018-05-11T04:13:09.559Z,91.90
2018-05-11T04:15:37.071Z,91.89
2018-05-11T04:18:05.545Z,91.75
2018-05-11T04:20:33.015Z,91.71
2018-05-11T04:23:00.594Z,91.40
2018-05-11T04:25:29.074Z,91.45
2018-05-11T04:27:56.563Z,91.66
2018-05-11T04:30:24.073Z,91.42
2018-05-11T04:32:51.571Z,91.25
2018-05-11T04:35:19.040Z,90.95
2018-05-11T04:37:46.544Z,90.27
2018-05-11T04:40:14.023Z,89.32
2018-05-11T04:42:41.519Z,89.14
2018-05-11T04:45:09.106Z,89.21
2018-05-11T04:47:36.603Z,89.54
2018-05-11T04:50:04.074Z,89.46
2018-05-11T04:52:31.663Z,89.33
2018-05-11T04:54:59.159Z,89.15
2018-05-11T04:57:26.650Z,89.21
2018-05-11T04:59:54.115Z,88.90
2018-05-11T05:02:21.610Z,88.70
2018-05-11T05:04:49.086Z,88.36
2018-05-11T05:07:16.578Z,87.44
2018-05-11T05:09:44.064Z,86.52
2018-05-11T05:12:11.567Z,86.55
2018-05-11T05:14:39.050Z,86.39
2018-05-11T05:17:06.608Z,85.86
2018-05-11T05:19:34.086Z,85.90
2018-05-11T05:22:01.627Z,85.92
2018-05-11T05:24:29.100Z,84.91
2018-05-11T05:26:56.643Z,85.45
2018-05-11T05:29:24.193Z,85.37
2018-05-11T05:31:51.704Z,85.41
2018-05-11T05:34:19.210Z,85.03
2018-05-11T05:36:46.708Z,84.88
2018-05-11T05:39:14.213Z,84.57
2018-05-11T05:41:41.694Z,84.77
2018-05-11T05:44:09.195Z,84.37
2018-05-11T05:46:36.690Z,83.95
2018-05-11T05:49:04.186Z,82.21
2018-05-11T05:51:31.730Z,81.87
2018-05-11T05:53:59.415Z,81.40
2018-05-11T05:56:26.900Z,80.90
2018-05-11T05:58:54.452Z,80.97
2018-05-11T06:01:21.954Z,80.70
2018-05-11T06:03:49.526Z,80.63
2018-05-11T06:06:17.013Z,80.66
2018-05-11T06:08:44.538Z,79.37
2018-05-11T06:11:12.010Z,78.63
2018-05-11T06:13:39.503Z,78.32
2018-05-11T06:16:06.989Z,77.71
2018-05-11T06:18:35.305Z,78.64
2018-05-11T06:21:02.779Z,77.66
2018-05-11T06:23:30.353Z,75.73
2018-05-11T06:25:57.844Z,75.44
2018-05-11T06:28:25.444Z,75.35
2018-05-11T06:30:52.915Z,74.48
2018-05-11T06:33:20.417Z,73.45
2018-05-11T06:35:47.886Z,73.55
2018-05-11T06:38:15.367Z,74.31
2018-05-11T06:40:42.869Z,73.24
2018-05-11T06:43:10.525Z,73.23
2018-05-11T06:45:38.069Z,72.90
2018-05-11T06:48:05.563Z,73.22
2018-05-11T06:50:33.064Z,72.20
2018-05-11T06:53:00.565Z,72.13
2018-05-11T06:55:28.082Z,71.93
2018-05-11T06:57:55.551Z,71.11
2018-05-11T07:00:23.095Z,70.59
2018-05-11T07:02:50.578Z,68.68
2018-05-11T07:05:19.794Z,69.87
2018-05-11T07:07:47.418Z,68.75
2018-05-11T07:10:14.839Z,68.30
2018-05-11T07:12:42.313Z,68.80
2018-05-11T07:15:09.815Z,69.80
2018-05-11T07:17:37.306Z,70.71
2018-05-11T07:20:04.802Z,71.79
2018-05-11T07:22:32.294Z,71.26
2018-05-11T07:24:59.831Z,70.78
2018-05-11T07:27:27.478Z,68.98
2018-05-11T07:29:54.995Z,68.15
2018-05-11T07:32:22.501Z,67.00
2018-05-11T07:34:50.015Z,65.95
2018-05-11T07:37:17.522Z,63.73
2018-05-11T07:39:45.030Z,63.59
2018-05-11T07:42:12.552Z,64.65
2018-05-11T07:44:40.135Z,64.05
2018-05-11T07:47:07.655Z,62.28
2018-05-11T07:49:35.122Z,63.12
2018-05-11T07:52:02.667Z,66.80
2018-05-11T07:54:30.230Z,69.27
2018-05-11T07:56:59.805Z,70.94
2018-05-11T07:59:27.495Z,71.80
2018-05-11T08:01:55.022Z,71.39
2018-05-11T08:04:22.634Z,71.58
2018-05-11T08:06:50.293Z,72.57
2018-05-11T08:09:17.843Z,72.34
2018-05-11T08:11:46.928Z,72.72
2018-05-11T08:14:15.561Z,72.61
2018-05-11T08:16:46.933Z,73.14
2018-05-11T08:19:14.627Z,73.00
2018-05-11T08:21:42.127Z,71.95
2018-05-11T08:24:09.720Z,71.75
2018-05-11T08:26:37.272Z,71.59
2018-05-11T08:29:04.771Z,71.71
2018-05-11T08:31:32.335Z,70.75
2018-05-11T08:33:59.831Z,69.33
2018-05-11T08:36:27.355Z,67.77
2018-05-11T08:38:54.909Z,68.64
2018-05-11T08:41:22.467Z,67.73
2018-05-11T08:43:50.134Z,68.64
2018-05-11T08:46:17.636Z,66.05
2018-05-11T08:48:45.119Z,64.44
2018-05-11T08:51:12.639Z,63.11
2018-05-11T08:53:40.131Z,61.43
2018-05-11T08:56:07.647Z,61.27
2018-05-11T08:58:35.206Z,60.04
2018-05-11T09:01:02.819Z,59.18
2018-05-11T09:03:30.318Z,58.39
2018-05-11T09:05:57.925Z,58.84
2018-05-11T09:08:25.580Z,56.80
2018-05-11T09:10:53.170Z,55.05
2018-05-11T09:13:21.180Z,56.05
2018-05-11T09:15:48.719Z,54.58
2018-05-11T09:18:16.287Z,53.45
2018-05-11T09:20:43.759Z,53.12
2018-05-11T09:23:11.260Z,52.38
2018-05-11T09:25:41.189Z,51.38
2018-05-11T09:28:08.898Z,50.79
2018-05-11T09:30:36.399Z,48.55
2018-05-11T09:33:03.886Z,49.32
2018-05-11T09:35:31.472Z,49.72
2018-05-11T09:37:59.051Z,47.51
2018-05-11T09:40:26.531Z,49.49
2018-05-11T09:42:54.099Z,48.44
2018-05-11T09:45:22.604Z,45.69
2018-05-11T09:47:50.151Z,46.65
2018-05-11T09:50:17.756Z,48.95
2018-05-11T09:52:45.242Z,48.91
2018-05-11T09:55:12.792Z,50.49
2018-05-11T09:57:40.315Z,49.81
2018-05-11T10:00:07.783Z,48.92
2018-05-11T10:02:35.331Z,50.22
2018-05-11T10:05:02.940Z,48.06
2018-05-11T10:07:30.465Z,46.39
2018-05-11T10:09:58.219Z,45.92
2018-05-11T10:12:25.730Z,48.05
2018-05-11T10:14:53.270Z,47.02
2018-05-11T10:17:20.735Z,45.79
2018-05-11T10:19:48.351Z,43.54
2018-05-11T10:22:15.899Z,41.46
2018-05-11T10:24:43.410Z,42.57
2018-05-11T10:27:10.927Z,41.96
2018-05-11T10:29:38.586Z,37.86
2018-05-11T10:32:06.071Z,38.36
2018-05-11T10:34:33.647Z,38.10
2018-05-11T10:37:01.214Z,36.22
2018-05-11T10:39:28.731Z,35.14
2018-05-11T10:41:56.291Z,35.11
2018-05-11T10:44:23.844Z,36.33
2018-05-11T10:46:51.517Z,36.76
2018-05-11T10:49:18.934Z,35.58
2018-05-11T10:51:46.394Z,35.68
2018-05-11T10:54:13.902Z,33.75
2018-05-11T10:56:41.371Z,33.79
2018-05-11T10:59:08.882Z,35.25
2018-05-11T11:01:36.359Z,37.57
2018-05-11T11:04:03.858Z,36.99
2018-05-11T11:06:31.374Z,38.81
2018-05-11T11:08:58.917Z,38.84
2018-05-11T11:11:26.395Z,35.71
2018-05-11T11:13:53.858Z,34.10
2018-05-11T11:16:21.384Z,32.34
2018-05-11T11:18:48.850Z,30.48
2018-05-11T11:21:16.365Z,31.63
2018-05-11T11:23:43.845Z,32.38
2018-05-11T11:26:11.368Z,30.47
2018-05-11T11:28:38.974Z,29.62
2018-05-11T11:31:06.498Z,31.13
2018-05-11T11:33:33.971Z,29.20
2018-05-11T11:36:01.459Z,28.83
2018-05-11T11:38:28.932Z,28.22
2018-05-11T11:40:57.428Z,29.40
2018-05-11T11:43:24.910Z,28.87
2018-05-11T11:45:52.502Z,27.54
2018-05-11T11:48:19.962Z,25.99
2018-05-11T11:50:47.451Z,27.04
2018-05-11T11:53:14.918Z,27.87
2018-05-11T11:55:42.624Z,23.83
2018-05-11T11:58:10.091Z,24.90
2018-05-11T12:00:37.709Z,24.10
2018-05-11T12:03:05.182Z,24.89
2018-05-11T12:05:32.739Z,24.58
2018-05-11T12:08:00.259Z,24.14
2018-05-11T12:10:27.868Z,22.23
2018-05-11T12:12:55.354Z,21.09
2018-05-11T12:15:22.842Z,23.05
2018-05-11T12:17:50.394Z,24.60
2018-05-11T12:20:17.987Z,23.69
2018-05-11T12:22:45.514Z,22.98
2018-05-11T12:25:13.031Z,21.45
2018-05-11T12:27:40.550Z,20.18
2018-05-11T12:30:08.010Z,18.91
2018-05-11T12:32:35.527Z,19.49
2018-05-11T12:35:02.990Z,21.63
2018-05-11T12:37:30.568Z,20.57
2018-05-11T12:39:58.035Z,20.77
2018-05-11T12:42:25.542Z,19.37
2018-05-11T12:44:53.044Z,17.99
2018-05-11T12:47:20.544Z,17.63
2018-05-11T12:49:48.011Z,17.86
2018-05-11T12:52:15.559Z,21.00
2018-05-11T12:54:43.082Z,18.95
2018-05-11T12:57:10.691Z,19.67
2018-05-11T12:59:38.171Z,18.92
2018-05-11T13:02:05.666Z,18.00
2018-05-11T13:04:33.127Z,16.90
2018-05-11T13:07:00.674Z,16.97
2018-05-11T13:09:28.138Z,19.55
2018-05-11T13:11:55.624Z,19.74
2018-05-11T13:14:23.084Z,18.02
2018-05-11T13:16:50.578Z,16.60
2018-05-11T13:19:18.999Z,17.60
2018-05-11T13:21:47.534Z,17.20
2018-05-11T13:24:15.034Z,16.38
2018-05-11T13:26:42.590Z,16.35
2018-05-11T13:29:10.097Z,16.03
2018-05-11T13:31:37.570Z,16.38
2018-05-11T13:34:05.085Z,16.80
2018-05-11T13:36:32.563Z,16.42
2018-05-11T13:39:00.125Z,17.22
2018-05-11T13:41:27.582Z,15.55
2018-05-11T13:43:55.098Z,16.64
2018-05-11T13:46:22.574Z,15.67
2018-05-11T13:48:50.134Z,13.75
2018-05-11T13:51:19.699Z,13.89
2018-05-11T13:53:47.303Z,13.46
2018-05-11T13:56:14.882Z,13.54
2018-05-11T13:58:42.407Z,14.57
2018-05-11T14:01:09.870Z,16.07
2018-05-11T14:03:37.430Z,14.34
2018-05-11T14:06:04.831Z,15.37
2018-05-11T14:08:32.357Z,15.79
2018-05-11T14:10:59.826Z,15.89
2018-05-11T14:13:27.330Z,14.62
2018-05-11T14:15:54.821Z,15.06
2018-05-11T14:18:22.392Z,16.93
2018-05-11T14:20:49.934Z,14.80
2018-05-11T14:23:17.452Z,14.96
2018-05-11T14:25:44.950Z,13.45
2018-05-11T14:28:12.517Z,13.93
2018-05-11T14:30:39.980Z,12.62
2018-05-11T14:33:07.531Z,14.11
2018-05-11T14:35:35.087Z,13.95
2018-05-11T14:38:02.589Z,13.09
2018-05-11T14:40:30.121Z,12.34
2018-05-11T14:42:57.601Z,11.90
2018-05-11T14:45:25.122Z,13.44
2018-05-11T14:47:52.583Z,11.76
2018-05-11T14:50:20.234Z,13.10
2018-05-11T14:52:47.709Z,14.23
2018-05-11T14:55:15.254Z,14.37
2018-05-11T14:57:42.714Z,16.23
2018-05-11T15:00:10.207Z,15.60
2018-05-11T15:02:37.738Z,18.48
2018-05-11T15:05:05.286Z,16.96
2018-05-11T15:07:32.751Z,14.33
2018-05-11T15:10:00.363Z,17.26
2018-05-11T15:12:27.784Z,19.54
2018-05-11T15:14:55.368Z,23.65
2018-05-11T15:17:22.835Z,21.06
2018-05-11T15:19:50.343Z,18.88
2018-05-11T15:22:17.876Z,17.80
2018-05-11T15:24:45.337Z,17.83
2018-05-11T15:27:12.804Z,16.95
2018-05-11T15:29:44.381Z,20.42
2018-05-11T15:32:11.847Z,21.18
2018-05-11T15:34:39.334Z,16.84
2018-05-11T15:37:06.791Z,16.31
2018-05-11T15:39:34.270Z,15.54
2018-05-11T15:42:01.768Z,15.33
2018-05-11T15:44:29.287Z,15.72
2018-05-11T15:46:56.784Z,17.06
2018-05-11T15:49:24.262Z,16.91
2018-05-11T15:51:51.828Z,19.32
2018-05-11T15:54:19.351Z,18.61
2018-05-11T15:56:46.815Z,17.49
2018-05-11T15:59:14.313Z,17.44
2018-05-11T16:01:41.937Z,16.51
2018-05-11T16:04:09.399Z,15.65
2018-05-11T16:06:36.938Z,16.28
2018-05-11T16:09:04.421Z,15.59
2018-05-11T16:11:32.008Z,18.28
2018-05-11T16:13:59.533Z,18.96
2018-05-11T16:16:27.023Z,20.06
2018-05-11T16:18:54.502Z,19.12
2018-05-11T16:21:21.994Z,17.87
2018-05-11T16:23:49.535Z,19.51
2018-05-11T16:26:17.032Z,19.47
2018-05-11T16:28:44.593Z,20.31
2018-05-11T16:31:12.090Z,20.16
2018-05-11T16:33:39.642Z,20.47
2018-05-11T16:36:07.137Z,19.73
2018-05-11T16:38:34.624Z,19.24
2018-05-11T16:41:02.123Z,19.61
2018-05-11T16:43:29.635Z,19.67
2018-05-11T16:45:57.192Z,20.52
2018-05-11T16:48:24.676Z,21.20
2018-05-11T16:50:52.173Z,21.16
2018-05-11T16:53:19.651Z,20.15
2018-05-11T16:55:47.276Z,20.96
2018-05-11T16:58:14.761Z,20.06
2018-05-11T17:00:42.389Z,20.63
2018-05-11T17:03:09.898Z,21.28
2018-05-11T17:05:37.486Z,21.08
2018-05-11T17:08:05.023Z,21.72
2018-05-11T17:10:32.603Z,21.87
2018-05-11T17:13:00.149Z,21.62
2018-05-11T17:15:27.618Z,20.96
2018-05-11T17:17:55.171Z,21.49
2018-05-11T17:20:22.643Z,22.77
2018-05-11T17:22:50.161Z,22.97
2018-05-11T17:25:17.622Z,22.48
2018-05-11T17:27:45.199Z,22.56
2018-05-11T17:30:12.764Z,24.14
2018-05-11T17:32:40.251Z,24.86
2018-05-11T17:35:07.719Z,24.31
2018-05-11T17:37:35.202Z,25.14
2018-05-11T17:40:02.667Z,25.48
2018-05-11T17:42:30.188Z,25.46
2018-05-11T17:44:57.711Z,27.53
2018-05-11T17:47:25.214Z,26.75
2018-05-11T17:49:52.694Z,29.02
2018-05-11T17:52:20.191Z,32.77
2018-05-11T17:54:47.695Z,35.69
2018-05-11T17:57:15.198Z,39.03
2018-05-11T17:59:42.800Z,40.87
2018-05-11T18:02:10.291Z,42.44
2018-05-11T18:04:37.798Z,43.68
2018-05-11T18:07:05.268Z,44.23
2018-05-11T18:09:32.770Z,45.19
2018-05-11T18:12:00.346Z,46.33
2018-05-11T18:14:27.775Z,47.32
2018-05-11T18:16:55.247Z,47.44
2018-05-11T18:19:22.834Z,48.37
2018-05-11T18:21:50.302Z,48.79
2018-05-11T18:24:17.848Z,49.18
2018-05-11T18:26:45.418Z,50.39
2018-05-11T18:29:12.909Z,50.42
2018-05-11T18:31:40.430Z,51.02
2018-05-11T18:34:07.987Z,51.89
2018-05-11T18:36:35.484Z,52.31
2018-05-11T18:39:03.007Z,53.27
2018-05-11T18:41:30.566Z,53.54
2018-05-11T18:43:58.127Z,54.71
2018-05-11T18:46:25.614Z,55.07
2018-05-11T18:48:53.106Z,55.87
2018-05-11T18:51:20.575Z,56.26
2018-05-11T18:53:48.392Z,57.22
2018-05-11T18:56:15.615Z,57.08
2018-05-11T18:58:43.099Z,57.76
2018-05-11T19:01:10.581Z,58.35
2018-05-11T19:03:38.102Z,58.63
2018-05-11T19:06:05.596Z,58.93
2018-05-11T19:08:33.103Z,60.25
2018-05-11T19:11:00.599Z,60.43
2018-05-11T19:16:02.367Z,61.54
2018-05-11T19:18:29.838Z,61.11
2018-05-11T19:20:57.358Z,60.99
2018-05-11T19:23:24.860Z,61.27
2018-05-11T19:25:52.356Z,62.37
2018-05-11T19:28:19.889Z,62.63
2018-05-11T19:30:47.423Z,63.24
2018-05-11T19:33:14.907Z,63.08
2018-05-11T19:35:42.427Z,62.82
2018-05-11T19:38:09.895Z,63.42
2018-05-11T19:40:37.387Z,63.67
2018-05-11T19:43:04.891Z,63.93
2018-05-11T19:45:32.379Z,65.11
2018-05-11T19:47:59.942Z,66.46
2018-05-11T19:50:27.442Z,67.18
2018-05-11T19:52:54.946Z,67.97
2018-05-11T19:55:22.460Z,67.30
2018-05-11T19:57:49.970Z,67.76
2018-05-11T20:00:17.481Z,67.37
2018-05-11T20:02:44.960Z,67.81
2018-05-11T20:05:12.476Z,68.02
2018-05-11T20:07:40.035Z,68.07
2018-05-11T20:10:07.526Z,68.07
2018-05-11T20:12:35.012Z,68.30
2018-05-11T20:15:02.550Z,70.16
2018-05-11T20:17:30.127Z,70.35
2018-05-11T20:19:57.673Z,70.08
2018-05-11T20:22:25.153Z,69.92
2018-05-11T20:24:52.781Z,71.34
2018-05-11T20:27:20.239Z,69.97
2018-05-11T20:29:47.707Z,70.45
2018-05-11T20:32:15.219Z,70.25
2018-05-11T20:34:42.808Z,71.07
2018-05-11T20:37:10.336Z,70.95
2018-05-11T20:39:37.851Z,71.44
2018-05-11T20:42:05.346Z,71.56
2018-05-11T20:44:32.871Z,71.56
2018-05-11T20:47:00.366Z,72.71
2018-05-11T20:49:27.980Z,72.80
2018-05-11T20:51:55.523Z,72.61
2018-05-11T20:54:23.076Z,73.23
2018-05-11T20:56:50.655Z,72.66
2018-05-11T20:59:18.126Z,72.82
2018-05-11T21:01:45.614Z,73.20
2018-05-11T21:04:13.110Z,73.50
2018-05-11T21:06:40.604Z,72.80
2018-05-11T21:09:08.155Z,72.36
2018-05-11T21:11:35.647Z,72.71
2018-05-11T21:14:03.120Z,73.08
2018-05-11T21:16:30.631Z,73.23
2018-05-11T21:18:58.111Z,72.52
2018-05-11T21:21:25.626Z,72.81
2018-05-11T21:23:53.093Z,72.62
2018-05-11T21:26:20.663Z,72.93
2018-05-11T21:28:48.128Z,73.31
2018-05-11T21:31:15.699Z,73.98
2018-05-11T21:33:43.166Z,74.42
2018-05-11T21:36:10.640Z,74.52
2018-05-11T21:38:38.231Z,73.74
2018-05-11T21:41:05.801Z,73.95
2018-05-11T21:43:33.252Z,74.68
2018-05-11T21:46:00.719Z,74.99
2018-05-11T21:48:28.222Z,75.80
2018-05-11T21:50:55.699Z,75.78
2018-05-11T21:53:23.202Z,75.15
2018-05-11T21:55:50.768Z,74.94
2018-05-11T21:58:18.289Z,75.56
2018-05-11T22:00:45.782Z,76.51
2018-05-11T22:03:13.278Z,76.68
2018-05-11T22:05:40.777Z,77.26
2018-05-11T22:08:08.267Z,78.06
2018-05-11T22:10:35.739Z,78.42
2018-05-11T22:13:03.228Z,79.06
2018-05-11T22:15:30.730Z,78.84
2018-05-11T22:17:58.236Z,79.56
2018-05-11T22:20:25.730Z,79.44
2018-05-11T22:22:53.223Z,79.74
2018-05-11T22:25:20.690Z,79.62
2018-05-11T22:27:48.370Z,78.57
2018-05-11T22:30:15.839Z,78.16
2018-05-11T22:32:43.451Z,78.43
2018-05-11T22:35:10.927Z,78.17
2018-05-11T22:37:38.473Z,78.51
2018-05-11T22:40:06.018Z,78.67
2018-05-11T22:42:33.593Z,79.01
2018-05-11T22:45:01.067Z,79.09
2018-05-11T22:47:28.603Z,79.39
2018-05-11T22:49:56.162Z,79.99
2018-05-11T22:52:23.631Z,80.19
2018-05-11T22:54:51.188Z,80.60
2018-05-11T22:57:18.659Z,80.70
2018-05-11T22:59:46.199Z,80.60
2018-05-11T23:02:13.794Z,80.28
2018-05-11T23:04:41.307Z,80.57
2018-05-11T23:07:08.876Z,80.49
2018-05-11T23:09:36.435Z,80.35
2018-05-11T23:12:03.898Z,80.23
2018-05-11T23:14:31.387Z,80.73
2018-05-11T23:16:58.855Z,80.97
2018-05-11T23:19:26.395Z,81.58
2018-05-11T23:21:53.931Z,82.29
2018-05-11T23:24:21.482Z,82.85
2018-05-11T23:26:49.056Z,83.39
2018-05-11T23:29:16.550Z,83.83
2018-05-11T23:31:44.021Z,83.90
2018-05-11T23:34:11.598Z,84.12
2018-05-11T23:36:39.070Z,84.03
2018-05-11T23:39:06.641Z,83.83
2018-05-11T23:41:34.111Z,83.88
2018-05-11T23:44:01.617Z,84.12
2018-05-11T23:46:29.107Z,84.36
2018-05-11T23:48:56.603Z,84.46
2018-05-11T23:51:24.083Z,84.62
2018-05-11T23:53:51.653Z,84.73
2018-05-11T23:56:19.126Z,84.82
2018-05-11T23:58:46.614Z,85.20
